sensor_id;sensor_type;location;lat;lon;timestamp;P1;durP1;ratioP1;P2;durP2;ratioP2
5225;SDS011;2632;51.666;7.146;2022-12-20T00:00:56;6.20;;;2.90;;
5225;SDS011;2632;51.666;7.146;2022-12-20T00:03:23;5.30;;;2.47;;
5225;SDS011;2632;51.666;7.146;2022-12-20T00:05:49;4.90;;;2.90;;
5225;SDS011;2632;51.666;7.146;2022-12-20T00:08:16;3.30;;;1.90;;
5225;SDS011;2632;51.666;7.146;2022-12-20T00:10:43;3.20;;;2.23;;
5225;SDS011;2632;51.666;7.146;2022-12-20T00:13:11;6.60;;;2.00;;
5225;SDS011;2632;51.666;7.146;2022-12-20T00:15:37;3.47;;;2.10;;
5225;SDS011;2632;51.666;7.146;2022-12-20T00:18:04;4.10;;;3.03;;
5225;SDS011;2632;51.666;7.146;2022-12-20T00:20:31;3.50;;;2.40;;
5225;SDS011;2632;51.666;7.146;2022-12-20T00:22:58;4.50;;;2.37;;
5225;SDS011;2632;51.666;7.146;2022-12-20T00:25:24;6.67;;;2.40;;
5225;SDS011;2632;51.666;7.146;2022-12-20T00:27:51;3.40;;;1.70;;
5225;SDS011;2632;51.666;7.146;2022-12-20T00:30:18;5.10;;;2.20;;
5225;SDS011;2632;51.666;7.146;2022-12-20T00:32:45;3.10;;;2.73;;
5225;SDS011;2632;51.666;7.146;2022-12-20T00:35:11;4.93;;;2.03;;
5225;SDS011;2632;51.666;7.146;2022-12-20T00:37:38;3.30;;;2.20;;
5225;SDS011;2632;51.666;7.146;2022-12-20T00:40:05;2.60;;;1.93;;
5225;SDS011;2632;51.666;7.146;2022-12-20T00:42:32;2.33;;;1.80;;
5225;SDS011;2632;51.666;7.146;2022-12-20T00:44:59;6.87;;;2.10;;
5225;SDS011;2632;51.666;7.146;2022-12-20T00:47:25;5.33;;;2.20;;
5225;SDS011;2632;51.666;7.146;2022-12-20T00:49:52;2.93;;;1.83;;
5225;SDS011;2632;51.666;7.146;2022-12-20T00:52:19;3.90;;;1.60;;
5225;SDS011;2632;51.666;7.146;2022-12-20T00:54:45;2.60;;;2.00;;
5225;SDS011;2632;51.666;7.146;2022-12-20T00:57:12;2.10;;;1.80;;
5225;SDS011;2632;51.666;7.146;2022-12-20T00:59:38;2.10;;;1.80;;
5225;SDS011;2632;51.666;7.146;2022-12-20T01:02:05;4.03;;;2.00;;
5225;SDS011;2632;51.666;7.146;2022-12-20T01:04:32;4.47;;;2.00;;
5225;SDS011;2632;51.666;7.146;2022-12-20T01:06:58;2.67;;;2.00;;
5225;SDS011;2632;51.666;7.146;2022-12-20T01:09:25;3.27;;;1.93;;
5225;SDS011;2632;51.666;7.146;2022-12-20T01:11:51;4.23;;;2.17;;
5225;SDS011;2632;51.666;7.146;2022-12-20T01:14:18;2.73;;;2.07;;
5225;SDS011;2632;51.666;7.146;2022-12-20T01:16:45;2.37;;;2.17;;
5225;SDS011;2632;51.666;7.146;2022-12-20T01:19:14;4.97;;;2.17;;
5225;SDS011;2632;51.666;7.146;2022-12-20T01:21:42;2.90;;;1.73;;
5225;SDS011;2632;51.666;7.146;2022-12-20T01:24:10;3.50;;;1.90;;
5225;SDS011;2632;51.666;7.146;2022-12-20T01:26:37;2.23;;;1.77;;
5225;SDS011;2632;51.666;7.146;2022-12-20T01:29:04;2.10;;;1.77;;
5225;SDS011;2632;51.666;7.146;2022-12-20T01:31:31;3.60;;;1.77;;
5225;SDS011;2632;51.666;7.146;2022-12-20T01:33:58;2.33;;;1.47;;
5225;SDS011;2632;51.666;7.146;2022-12-20T01:36:26;2.13;;;1.93;;
5225;SDS011;2632;51.666;7.146;2022-12-20T01:38:56;2.00;;;1.60;;
5225;SDS011;2632;51.666;7.146;2022-12-20T01:41:24;2.13;;;1.57;;
5225;SDS011;2632;51.666;7.146;2022-12-20T01:43:53;3.97;;;1.90;;
5225;SDS011;2632;51.666;7.146;2022-12-20T01:46:28;3.63;;;3.33;;
5225;SDS011;2632;51.666;7.146;2022-12-20T01:49:41;2.20;;;1.63;;
5225;SDS011;2632;51.666;7.146;2022-12-20T01:52:12;3.17;;;1.77;;
5225;SDS011;2632;51.666;7.146;2022-12-20T01:54:45;13.33;;;2.20;;
5225;SDS011;2632;51.666;7.146;2022-12-20T01:57:14;3.13;;;1.77;;
5225;SDS011;2632;51.666;7.146;2022-12-20T01:59:46;3.20;;;1.90;;
5225;SDS011;2632;51.666;7.146;2022-12-20T02:02:15;2.53;;;1.40;;
5225;SDS011;2632;51.666;7.146;2022-12-20T02:04:43;3.93;;;1.50;;
5225;SDS011;2632;51.666;7.146;2022-12-20T02:07:10;1.40;;;1.30;;
5225;SDS011;2632;51.666;7.146;2022-12-20T02:09:42;3.07;;;2.03;;
5225;SDS011;2632;51.666;7.146;2022-12-20T02:12:10;2.27;;;1.57;;
5225;SDS011;2632;51.666;7.146;2022-12-20T02:15:22;2.37;;;1.70;;
5225;SDS011;2632;51.666;7.146;2022-12-20T02:20:46;2.70;;;1.87;;
5225;SDS011;2632;51.666;7.146;2022-12-20T02:23:26;2.37;;;1.73;;
5225;SDS011;2632;51.666;7.146;2022-12-20T02:29:09;2.37;;;1.87;;
5225;SDS011;2632;51.666;7.146;2022-12-20T02:34:25;1.50;;;1.30;;
5225;SDS011;2632;51.666;7.146;2022-12-20T02:36:54;3.27;;;1.83;;
5225;SDS011;2632;51.666;7.146;2022-12-20T02:39:21;3.13;;;1.67;;
5225;SDS011;2632;51.666;7.146;2022-12-20T02:41:59;3.17;;;2.00;;
5225;SDS011;2632;51.666;7.146;2022-12-20T02:44:31;2.10;;;1.87;;
5225;SDS011;2632;51.666;7.146;2022-12-20T02:47:23;3.63;;;1.83;;
5225;SDS011;2632;51.666;7.146;2022-12-20T02:49:56;7.07;;;2.13;;
5225;SDS011;2632;51.666;7.146;2022-12-20T02:52:24;2.00;;;1.70;;
5225;SDS011;2632;51.666;7.146;2022-12-20T02:54:56;2.30;;;2.00;;
5225;SDS011;2632;51.666;7.146;2022-12-20T03:00:13;3.20;;;2.13;;
5225;SDS011;2632;51.666;7.146;2022-12-20T03:02:43;2.47;;;2.07;;
5225;SDS011;2632;51.666;7.146;2022-12-20T03:05:31;2.93;;;1.70;;
5225;SDS011;2632;51.666;7.146;2022-12-20T03:08:00;4.27;;;2.40;;
5225;SDS011;2632;51.666;7.146;2022-12-20T03:10:28;2.37;;;2.10;;
5225;SDS011;2632;51.666;7.146;2022-12-20T03:12:55;2.93;;;2.53;;
5225;SDS011;2632;51.666;7.146;2022-12-20T03:15:21;3.33;;;2.10;;
5225;SDS011;2632;51.666;7.146;2022-12-20T03:17:48;9.63;;;2.37;;
5225;SDS011;2632;51.666;7.146;2022-12-20T03:20:14;6.17;;;2.60;;
5225;SDS011;2632;51.666;7.146;2022-12-20T03:22:41;2.43;;;2.23;;
5225;SDS011;2632;51.666;7.146;2022-12-20T03:25:08;3.90;;;2.10;;
5225;SDS011;2632;51.666;7.146;2022-12-20T03:27:34;3.47;;;2.40;;
5225;SDS011;2632;51.666;7.146;2022-12-20T03:30:01;4.50;;;2.77;;
5225;SDS011;2632;51.666;7.146;2022-12-20T03:32:28;5.73;;;3.10;;
5225;SDS011;2632;51.666;7.146;2022-12-20T03:34:55;6.83;;;3.10;;
5225;SDS011;2632;51.666;7.146;2022-12-20T03:37:22;3.90;;;2.70;;
5225;SDS011;2632;51.666;7.146;2022-12-20T03:39:49;7.17;;;4.40;;
5225;SDS011;2632;51.666;7.146;2022-12-20T03:42:15;3.70;;;3.30;;
5225;SDS011;2632;51.666;7.146;2022-12-20T03:44:42;5.00;;;3.40;;
5225;SDS011;2632;51.666;7.146;2022-12-20T03:47:09;9.40;;;2.50;;
5225;SDS011;2632;51.666;7.146;2022-12-20T03:49:36;4.57;;;2.80;;
5225;SDS011;2632;51.666;7.146;2022-12-20T03:52:02;4.37;;;3.10;;
5225;SDS011;2632;51.666;7.146;2022-12-20T03:54:29;3.83;;;2.57;;
5225;SDS011;2632;51.666;7.146;2022-12-20T03:56:56;4.27;;;2.57;;
5225;SDS011;2632;51.666;7.146;2022-12-20T03:59:22;7.43;;;3.23;;
5225;SDS011;2632;51.666;7.146;2022-12-20T04:01:49;4.53;;;2.87;;
5225;SDS011;2632;51.666;7.146;2022-12-20T04:04:16;4.30;;;2.73;;
5225;SDS011;2632;51.666;7.146;2022-12-20T04:06:42;5.33;;;3.20;;
5225;SDS011;2632;51.666;7.146;2022-12-20T04:09:09;3.40;;;2.77;;
5225;SDS011;2632;51.666;7.146;2022-12-20T04:11:35;3.33;;;2.90;;
5225;SDS011;2632;51.666;7.146;2022-12-20T04:14:02;5.43;;;2.80;;
5225;SDS011;2632;51.666;7.146;2022-12-20T04:16:29;6.97;;;3.07;;
5225;SDS011;2632;51.666;7.146;2022-12-20T04:18:55;3.97;;;3.07;;
5225;SDS011;2632;51.666;7.146;2022-12-20T04:21:23;5.00;;;2.80;;
5225;SDS011;2632;51.666;7.146;2022-12-20T04:23:52;3.50;;;2.50;;
5225;SDS011;2632;51.666;7.146;2022-12-20T04:26:18;4.30;;;2.50;;
5225;SDS011;2632;51.666;7.146;2022-12-20T04:28:45;2.30;;;2.10;;
5225;SDS011;2632;51.666;7.146;2022-12-20T04:31:12;3.57;;;2.80;;
5225;SDS011;2632;51.666;7.146;2022-12-20T04:33:46;5.30;;;3.13;;
5225;SDS011;2632;51.666;7.146;2022-12-20T04:36:13;3.83;;;2.53;;
5225;SDS011;2632;51.666;7.146;2022-12-20T04:38:40;3.37;;;2.70;;
5225;SDS011;2632;51.666;7.146;2022-12-20T04:41:07;5.83;;;2.80;;
5225;SDS011;2632;51.666;7.146;2022-12-20T04:43:34;6.63;;;3.10;;
5225;SDS011;2632;51.666;7.146;2022-12-20T04:46:00;5.07;;;2.97;;
5225;SDS011;2632;51.666;7.146;2022-12-20T04:48:27;4.53;;;2.87;;
5225;SDS011;2632;51.666;7.146;2022-12-20T04:51:14;7.43;;;3.17;;
5225;SDS011;2632;51.666;7.146;2022-12-20T04:53:42;6.60;;;3.07;;
5225;SDS011;2632;51.666;7.146;2022-12-20T04:56:18;5.30;;;3.20;;
5225;SDS011;2632;51.666;7.146;2022-12-20T04:58:48;7.97;;;3.07;;
5225;SDS011;2632;51.666;7.146;2022-12-20T05:01:17;3.77;;;2.60;;
5225;SDS011;2632;51.666;7.146;2022-12-20T05:03:44;4.17;;;2.83;;
5225;SDS011;2632;51.666;7.146;2022-12-20T05:06:12;3.17;;;2.60;;
5225;SDS011;2632;51.666;7.146;2022-12-20T05:08:39;5.03;;;2.87;;
5225;SDS011;2632;51.666;7.146;2022-12-20T05:11:06;6.90;;;3.10;;
5225;SDS011;2632;51.666;7.146;2022-12-20T05:13:33;4.53;;;2.63;;
5225;SDS011;2632;51.666;7.146;2022-12-20T05:16:00;4.00;;;2.80;;
5225;SDS011;2632;51.666;7.146;2022-12-20T05:18:27;7.30;;;2.70;;
5225;SDS011;2632;51.666;7.146;2022-12-20T05:20:55;3.80;;;2.50;;
5225;SDS011;2632;51.666;7.146;2022-12-20T05:23:41;4.03;;;2.97;;
5225;SDS011;2632;51.666;7.146;2022-12-20T05:26:29;3.30;;;2.60;;
5225;SDS011;2632;51.666;7.146;2022-12-20T05:28:57;3.10;;;2.50;;
5225;SDS011;2632;51.666;7.146;2022-12-20T05:31:24;4.00;;;2.90;;
5225;SDS011;2632;51.666;7.146;2022-12-20T05:33:51;4.50;;;3.17;;
5225;SDS011;2632;51.666;7.146;2022-12-20T05:36:17;4.77;;;2.93;;
5225;SDS011;2632;51.666;7.146;2022-12-20T05:38:44;3.77;;;2.50;;
5225;SDS011;2632;51.666;7.146;2022-12-20T05:41:11;3.57;;;2.50;;
5225;SDS011;2632;51.666;7.146;2022-12-20T05:43:37;5.50;;;3.07;;
5225;SDS011;2632;51.666;7.146;2022-12-20T05:46:05;3.60;;;2.53;;
5225;SDS011;2632;51.666;7.146;2022-12-20T05:48:32;7.40;;;3.17;;
5225;SDS011;2632;51.666;7.146;2022-12-20T05:50:59;9.70;;;3.10;;
5225;SDS011;2632;51.666;7.146;2022-12-20T05:53:26;6.60;;;2.73;;
5225;SDS011;2632;51.666;7.146;2022-12-20T05:55:52;5.40;;;2.77;;
5225;SDS011;2632;51.666;7.146;2022-12-20T05:58:19;6.20;;;3.40;;
5225;SDS011;2632;51.666;7.146;2022-12-20T06:00:46;7.40;;;3.27;;
5225;SDS011;2632;51.666;7.146;2022-12-20T06:03:13;5.40;;;3.50;;
5225;SDS011;2632;51.666;7.146;2022-12-20T06:05:44;6.73;;;2.97;;
5225;SDS011;2632;51.666;7.146;2022-12-20T06:08:11;5.57;;;3.57;;
5225;SDS011;2632;51.666;7.146;2022-12-20T06:10:39;6.10;;;2.90;;
5225;SDS011;2632;51.666;7.146;2022-12-20T06:13:07;3.57;;;3.00;;
5225;SDS011;2632;51.666;7.146;2022-12-20T06:15:35;4.37;;;2.87;;
5225;SDS011;2632;51.666;7.146;2022-12-20T06:18:02;4.23;;;3.20;;
5225;SDS011;2632;51.666;7.146;2022-12-20T06:20:29;7.93;;;3.40;;
5225;SDS011;2632;51.666;7.146;2022-12-20T06:22:56;8.97;;;4.23;;
5225;SDS011;2632;51.666;7.146;2022-12-20T06:25:23;7.70;;;4.17;;
5225;SDS011;2632;51.666;7.146;2022-12-20T06:27:49;12.90;;;5.37;;
5225;SDS011;2632;51.666;7.146;2022-12-20T06:30:16;10.97;;;5.90;;
5225;SDS011;2632;51.666;7.146;2022-12-20T06:32:43;8.00;;;4.70;;
5225;SDS011;2632;51.666;7.146;2022-12-20T06:35:10;7.57;;;3.87;;
5225;SDS011;2632;51.666;7.146;2022-12-20T06:37:37;10.30;;;4.63;;
5225;SDS011;2632;51.666;7.146;2022-12-20T06:40:09;12.73;;;4.40;;
5225;SDS011;2632;51.666;7.146;2022-12-20T06:42:37;10.13;;;3.77;;
5225;SDS011;2632;51.666;7.146;2022-12-20T06:45:04;5.73;;;3.60;;
5225;SDS011;2632;51.666;7.146;2022-12-20T06:47:31;6.80;;;3.43;;
5225;SDS011;2632;51.666;7.146;2022-12-20T06:49:58;7.50;;;3.67;;
5225;SDS011;2632;51.666;7.146;2022-12-20T06:52:25;8.67;;;4.33;;
5225;SDS011;2632;51.666;7.146;2022-12-20T06:54:51;12.47;;;4.83;;
5225;SDS011;2632;51.666;7.146;2022-12-20T06:57:18;19.37;;;5.37;;
5225;SDS011;2632;51.666;7.146;2022-12-20T06:59:45;9.27;;;4.87;;
5225;SDS011;2632;51.666;7.146;2022-12-20T07:02:11;9.90;;;3.90;;
5225;SDS011;2632;51.666;7.146;2022-12-20T07:04:39;8.60;;;3.27;;
5225;SDS011;2632;51.666;7.146;2022-12-20T07:07:06;5.73;;;3.90;;
5225;SDS011;2632;51.666;7.146;2022-12-20T07:09:33;12.47;;;4.83;;
5225;SDS011;2632;51.666;7.146;2022-12-20T07:12:00;10.23;;;4.90;;
5225;SDS011;2632;51.666;7.146;2022-12-20T07:14:26;9.30;;;4.40;;
5225;SDS011;2632;51.666;7.146;2022-12-20T07:16:53;5.40;;;3.60;;
5225;SDS011;2632;51.666;7.146;2022-12-20T07:19:20;8.10;;;4.00;;
5225;SDS011;2632;51.666;7.146;2022-12-20T07:21:47;8.73;;;4.50;;
5225;SDS011;2632;51.666;7.146;2022-12-20T07:24:14;8.57;;;3.93;;
5225;SDS011;2632;51.666;7.146;2022-12-20T07:26:42;11.47;;;4.77;;
5225;SDS011;2632;51.666;7.146;2022-12-20T07:29:10;7.57;;;4.03;;
5225;SDS011;2632;51.666;7.146;2022-12-20T07:31:41;10.87;;;4.90;;
5225;SDS011;2632;51.666;7.146;2022-12-20T07:34:09;11.93;;;3.97;;
5225;SDS011;2632;51.666;7.146;2022-12-20T07:36:35;10.03;;;5.40;;
5225;SDS011;2632;51.666;7.146;2022-12-20T07:39:02;9.87;;;4.50;;
5225;SDS011;2632;51.666;7.146;2022-12-20T07:41:29;12.70;;;5.17;;
5225;SDS011;2632;51.666;7.146;2022-12-20T07:43:56;6.77;;;3.93;;
5225;SDS011;2632;51.666;7.146;2022-12-20T07:46:24;12.23;;;5.70;;
5225;SDS011;2632;51.666;7.146;2022-12-20T07:48:51;8.00;;;4.50;;
5225;SDS011;2632;51.666;7.146;2022-12-20T07:51:18;12.77;;;4.20;;
5225;SDS011;2632;51.666;7.146;2022-12-20T07:53:55;8.80;;;3.83;;
5225;SDS011;2632;51.666;7.146;2022-12-20T07:56:45;11.70;;;5.27;;
5225;SDS011;2632;51.666;7.146;2022-12-20T07:59:15;12.23;;;4.10;;
5225;SDS011;2632;51.666;7.146;2022-12-20T08:01:46;7.70;;;3.83;;
5225;SDS011;2632;51.666;7.146;2022-12-20T08:04:15;13.77;;;6.40;;
5225;SDS011;2632;51.666;7.146;2022-12-20T08:06:48;15.63;;;7.53;;
5225;SDS011;2632;51.666;7.146;2022-12-20T08:09:18;8.27;;;4.07;;
5225;SDS011;2632;51.666;7.146;2022-12-20T08:11:48;9.90;;;5.23;;
5225;SDS011;2632;51.666;7.146;2022-12-20T08:14:16;5.07;;;3.07;;
5225;SDS011;2632;51.666;7.146;2022-12-20T08:16:44;14.93;;;5.60;;
5225;SDS011;2632;51.666;7.146;2022-12-20T08:19:11;6.90;;;4.00;;
5225;SDS011;2632;51.666;7.146;2022-12-20T08:21:38;5.33;;;3.20;;
5225;SDS011;2632;51.666;7.146;2022-12-20T08:24:04;5.00;;;2.73;;
5225;SDS011;2632;51.666;7.146;2022-12-20T08:26:35;6.13;;;3.50;;
5225;SDS011;2632;51.666;7.146;2022-12-20T08:29:03;6.07;;;3.50;;
5225;SDS011;2632;51.666;7.146;2022-12-20T08:31:30;8.43;;;4.50;;
5225;SDS011;2632;51.666;7.146;2022-12-20T08:33:57;6.03;;;2.90;;
5225;SDS011;2632;51.666;7.146;2022-12-20T08:36:24;8.30;;;2.97;;
5225;SDS011;2632;51.666;7.146;2022-12-20T08:38:50;6.33;;;3.37;;
5225;SDS011;2632;51.666;7.146;2022-12-20T08:41:17;5.50;;;3.00;;
5225;SDS011;2632;51.666;7.146;2022-12-20T08:43:44;5.23;;;3.20;;
5225;SDS011;2632;51.666;7.146;2022-12-20T08:46:11;6.13;;;3.23;;
5225;SDS011;2632;51.666;7.146;2022-12-20T08:48:38;6.67;;;2.37;;
5225;SDS011;2632;51.666;7.146;2022-12-20T08:51:06;2.77;;;2.20;;
5225;SDS011;2632;51.666;7.146;2022-12-20T08:53:34;3.87;;;2.10;;
5225;SDS011;2632;51.666;7.146;2022-12-20T08:56:06;2.70;;;2.37;;
5225;SDS011;2632;51.666;7.146;2022-12-20T08:58:37;3.50;;;2.10;;
5225;SDS011;2632;51.666;7.146;2022-12-20T09:01:06;3.37;;;2.50;;
5225;SDS011;2632;51.666;7.146;2022-12-20T09:03:35;4.37;;;2.33;;
5225;SDS011;2632;51.666;7.146;2022-12-20T09:06:10;2.80;;;2.03;;
5225;SDS011;2632;51.666;7.146;2022-12-20T09:08:40;3.40;;;2.27;;
5225;SDS011;2632;51.666;7.146;2022-12-20T09:11:09;2.33;;;1.80;;
5225;SDS011;2632;51.666;7.146;2022-12-20T09:13:38;3.90;;;1.93;;
5225;SDS011;2632;51.666;7.146;2022-12-20T09:16:10;5.80;;;2.10;;
5225;SDS011;2632;51.666;7.146;2022-12-20T09:18:39;5.03;;;2.43;;
5225;SDS011;2632;51.666;7.146;2022-12-20T09:21:06;2.73;;;2.13;;
5225;SDS011;2632;51.666;7.146;2022-12-20T09:23:34;3.93;;;1.70;;
5225;SDS011;2632;51.666;7.146;2022-12-20T09:26:04;2.60;;;1.53;;
5225;SDS011;2632;51.666;7.146;2022-12-20T09:28:33;2.83;;;2.00;;
5225;SDS011;2632;51.666;7.146;2022-12-20T09:31:00;2.07;;;1.87;;
5225;SDS011;2632;51.666;7.146;2022-12-20T09:33:29;9.50;;;2.20;;
5225;SDS011;2632;51.666;7.146;2022-12-20T09:35:57;3.30;;;2.00;;
5225;SDS011;2632;51.666;7.146;2022-12-20T09:38:24;9.80;;;2.10;;
5225;SDS011;2632;51.666;7.146;2022-12-20T09:40:53;5.10;;;1.80;;
5225;SDS011;2632;51.666;7.146;2022-12-20T09:43:22;2.60;;;1.90;;
5225;SDS011;2632;51.666;7.146;2022-12-20T09:45:59;2.50;;;1.90;;
5225;SDS011;2632;51.666;7.146;2022-12-20T09:48:28;2.20;;;1.80;;
5225;SDS011;2632;51.666;7.146;2022-12-20T09:56:57;2.80;;;2.00;;
5225;SDS011;2632;51.666;7.146;2022-12-20T09:59:28;2.20;;;2.00;;
5225;SDS011;2632;51.666;7.146;2022-12-20T10:02:06;4.50;;;2.00;;
5225;SDS011;2632;51.666;7.146;2022-12-20T10:04:56;2.17;;;1.60;;
5225;SDS011;2632;51.666;7.146;2022-12-20T10:10:32;2.33;;;1.90;;
5225;SDS011;2632;51.666;7.146;2022-12-20T10:13:17;2.27;;;2.07;;
5225;SDS011;2632;51.666;7.146;2022-12-20T10:16:10;3.17;;;2.00;;
5225;SDS011;2632;51.666;7.146;2022-12-20T10:24:40;4.70;;;2.63;;
5225;SDS011;2632;51.666;7.146;2022-12-20T10:27:14;2.40;;;1.93;;
5225;SDS011;2632;51.666;7.146;2022-12-20T10:29:45;2.80;;;2.03;;
5225;SDS011;2632;51.666;7.146;2022-12-20T10:32:15;2.10;;;1.70;;
5225;SDS011;2632;51.666;7.146;2022-12-20T10:35:30;3.27;;;1.90;;
5225;SDS011;2632;51.666;7.146;2022-12-20T10:37:37;3.80;;;2.20;;
5225;SDS011;2632;51.666;7.146;2022-12-20T10:40:10;3.33;;;2.20;;
5225;SDS011;2632;51.666;7.146;2022-12-20T10:43:16;2.03;;;1.83;;
5225;SDS011;2632;51.666;7.146;2022-12-20T10:45:54;2.80;;;2.07;;
5225;SDS011;2632;51.666;7.146;2022-12-20T10:48:31;3.27;;;2.00;;
5225;SDS011;2632;51.666;7.146;2022-12-20T10:51:00;3.33;;;2.50;;
5225;SDS011;2632;51.666;7.146;2022-12-20T10:53:31;4.70;;;1.80;;
5225;SDS011;2632;51.666;7.146;2022-12-20T10:59:02;2.80;;;2.30;;
5225;SDS011;2632;51.666;7.146;2022-12-20T11:01:44;5.17;;;2.23;;
5225;SDS011;2632;51.666;7.146;2022-12-20T11:04:32;3.70;;;2.37;;
5225;SDS011;2632;51.666;7.146;2022-12-20T11:07:02;2.87;;;2.10;;
5225;SDS011;2632;51.666;7.146;2022-12-20T11:09:53;2.87;;;2.37;;
5225;SDS011;2632;51.666;7.146;2022-12-20T11:12:22;2.93;;;2.10;;
5225;SDS011;2632;51.666;7.146;2022-12-20T11:14:48;2.73;;;1.90;;
5225;SDS011;2632;51.666;7.146;2022-12-20T11:17:24;4.10;;;2.40;;
5225;SDS011;2632;51.666;7.146;2022-12-20T11:28:23;5.80;;;2.20;;
5225;SDS011;2632;51.666;7.146;2022-12-20T11:33:53;4.00;;;2.30;;
5225;SDS011;2632;51.666;7.146;2022-12-20T11:45:29;3.07;;;1.70;;
5225;SDS011;2632;51.666;7.146;2022-12-20T11:48:19;5.77;;;2.50;;
5225;SDS011;2632;51.666;7.146;2022-12-20T11:53:37;2.37;;;2.00;;
5225;SDS011;2632;51.666;7.146;2022-12-20T11:56:15;6.70;;;2.00;;
5225;SDS011;2632;51.666;7.146;2022-12-20T12:01:45;6.63;;;2.00;;
5225;SDS011;2632;51.666;7.146;2022-12-20T12:06:56;3.77;;;1.87;;
5225;SDS011;2632;51.666;7.146;2022-12-20T12:09:32;2.30;;;2.10;;
5225;SDS011;2632;51.666;7.146;2022-12-20T12:12:07;5.27;;;2.20;;
5225;SDS011;2632;51.666;7.146;2022-12-20T12:23:11;3.90;;;2.50;;
5225;SDS011;2632;51.666;7.146;2022-12-20T12:25:45;2.03;;;1.67;;
5225;SDS011;2632;51.666;7.146;2022-12-20T12:28:12;3.67;;;2.30;;
5225;SDS011;2632;51.666;7.146;2022-12-20T12:30:43;3.17;;;2.10;;
5225;SDS011;2632;51.666;7.146;2022-12-20T12:33:21;5.03;;;1.70;;
5225;SDS011;2632;51.666;7.146;2022-12-20T12:36:15;2.67;;;1.97;;
5225;SDS011;2632;51.666;7.146;2022-12-20T12:47:10;3.60;;;2.10;;
5225;SDS011;2632;51.666;7.146;2022-12-20T12:49:46;3.23;;;2.17;;
5225;SDS011;2632;51.666;7.146;2022-12-20T12:52:26;3.67;;;2.10;;
5225;SDS011;2632;51.666;7.146;2022-12-20T12:58:14;1.77;;;1.40;;
5225;SDS011;2632;51.666;7.146;2022-12-20T13:01:10;6.20;;;2.10;;
5225;SDS011;2632;51.666;7.146;2022-12-20T13:11:30;6.77;;;1.80;;
5225;SDS011;2632;51.666;7.146;2022-12-20T13:14:38;6.30;;;2.23;;
5225;SDS011;2632;51.666;7.146;2022-12-20T13:19:49;2.33;;;2.13;;
5225;SDS011;2632;51.666;7.146;2022-12-20T13:43:03;3.47;;;2.17;;
5225;SDS011;2632;51.666;7.146;2022-12-20T13:45:59;3.73;;;2.40;;
5225;SDS011;2632;51.666;7.146;2022-12-20T13:51:18;3.60;;;2.80;;
5225;SDS011;2632;51.666;7.146;2022-12-20T13:53:59;2.53;;;2.07;;
5225;SDS011;2632;51.666;7.146;2022-12-20T13:58:55;4.43;;;2.40;;
5225;SDS011;2632;51.666;7.146;2022-12-20T14:01:23;4.13;;;2.77;;
5225;SDS011;2632;51.666;7.146;2022-12-20T14:03:51;6.40;;;2.97;;
5225;SDS011;2632;51.666;7.146;2022-12-20T14:06:19;5.47;;;2.97;;
5225;SDS011;2632;51.666;7.146;2022-12-20T14:08:52;7.53;;;2.90;;
5225;SDS011;2632;51.666;7.146;2022-12-20T14:11:20;5.03;;;2.50;;
5225;SDS011;2632;51.666;7.146;2022-12-20T14:13:53;3.60;;;2.70;;
5225;SDS011;2632;51.666;7.146;2022-12-20T14:16:22;3.30;;;2.77;;
5225;SDS011;2632;51.666;7.146;2022-12-20T14:21:28;5.47;;;2.63;;
5225;SDS011;2632;51.666;7.146;2022-12-20T14:23:56;6.60;;;2.73;;
5225;SDS011;2632;51.666;7.146;2022-12-20T14:26:27;4.40;;;3.07;;
5225;SDS011;2632;51.666;7.146;2022-12-20T14:29:15;6.03;;;2.93;;
5225;SDS011;2632;51.666;7.146;2022-12-20T14:31:45;3.97;;;2.43;;
5225;SDS011;2632;51.666;7.146;2022-12-20T14:34:20;6.73;;;2.60;;
5225;SDS011;2632;51.666;7.146;2022-12-20T14:39:54;6.43;;;3.40;;
5225;SDS011;2632;51.666;7.146;2022-12-20T14:42:26;11.40;;;4.07;;
5225;SDS011;2632;51.666;7.146;2022-12-20T14:48:03;15.70;;;6.17;;
5225;SDS011;2632;51.666;7.146;2022-12-20T14:50:33;10.10;;;5.10;;
5225;SDS011;2632;51.666;7.146;2022-12-20T14:53:16;10.37;;;4.63;;
5225;SDS011;2632;51.666;7.146;2022-12-20T14:55:45;13.47;;;5.20;;
5225;SDS011;2632;51.666;7.146;2022-12-20T14:58:22;9.70;;;5.07;;
5225;SDS011;2632;51.666;7.146;2022-12-20T15:03:53;6.97;;;3.97;;
5225;SDS011;2632;51.666;7.146;2022-12-20T15:06:32;7.60;;;3.77;;
5225;SDS011;2632;51.666;7.146;2022-12-20T15:09:02;10.50;;;4.40;;
5225;SDS011;2632;51.666;7.146;2022-12-20T15:11:30;9.70;;;3.87;;
5225;SDS011;2632;51.666;7.146;2022-12-20T15:13:59;8.00;;;4.10;;
5225;SDS011;2632;51.666;7.146;2022-12-20T15:16:27;11.07;;;4.80;;
5225;SDS011;2632;51.666;7.146;2022-12-20T15:18:56;7.60;;;4.90;;
5225;SDS011;2632;51.666;7.146;2022-12-20T15:21:31;6.93;;;4.10;;
5225;SDS011;2632;51.666;7.146;2022-12-20T15:23:59;8.37;;;4.83;;
5225;SDS011;2632;51.666;7.146;2022-12-20T15:26:27;9.13;;;4.80;;
5225;SDS011;2632;51.666;7.146;2022-12-20T15:28:56;10.57;;;5.20;;
5225;SDS011;2632;51.666;7.146;2022-12-20T15:31:22;14.00;;;5.53;;
5225;SDS011;2632;51.666;7.146;2022-12-20T15:33:58;10.93;;;5.47;;
5225;SDS011;2632;51.666;7.146;2022-12-20T15:36:27;5.70;;;3.73;;
5225;SDS011;2632;51.666;7.146;2022-12-20T15:38:55;8.30;;;5.10;;
5225;SDS011;2632;51.666;7.146;2022-12-20T15:41:40;8.73;;;4.70;;
5225;SDS011;2632;51.666;7.146;2022-12-20T15:44:11;7.47;;;4.30;;
5225;SDS011;2632;51.666;7.146;2022-12-20T15:46:40;10.80;;;4.23;;
5225;SDS011;2632;51.666;7.146;2022-12-20T15:49:10;12.70;;;4.60;;
5225;SDS011;2632;51.666;7.146;2022-12-20T15:51:43;10.00;;;4.37;;
5225;SDS011;2632;51.666;7.146;2022-12-20T15:54:33;10.03;;;3.77;;
5225;SDS011;2632;51.666;7.146;2022-12-20T15:57:01;9.07;;;3.90;;
5225;SDS011;2632;51.666;7.146;2022-12-20T15:59:32;5.80;;;3.47;;
5225;SDS011;2632;51.666;7.146;2022-12-20T16:02:19;8.50;;;4.33;;
5225;SDS011;2632;51.666;7.146;2022-12-20T16:04:51;5.83;;;3.40;;
5225;SDS011;2632;51.666;7.146;2022-12-20T16:07:18;6.77;;;3.70;;
5225;SDS011;2632;51.666;7.146;2022-12-20T16:09:45;4.60;;;3.33;;
5225;SDS011;2632;51.666;7.146;2022-12-20T16:12:13;7.20;;;4.03;;
5225;SDS011;2632;51.666;7.146;2022-12-20T16:14:43;5.20;;;3.83;;
5225;SDS011;2632;51.666;7.146;2022-12-20T16:17:13;6.03;;;3.70;;
5225;SDS011;2632;51.666;7.146;2022-12-20T16:19:43;6.70;;;4.50;;
5225;SDS011;2632;51.666;7.146;2022-12-20T16:22:13;7.40;;;4.20;;
5225;SDS011;2632;51.666;7.146;2022-12-20T16:24:42;7.43;;;4.20;;
5225;SDS011;2632;51.666;7.146;2022-12-20T16:27:09;8.87;;;4.60;;
5225;SDS011;2632;51.666;7.146;2022-12-20T16:29:36;6.90;;;4.73;;
5225;SDS011;2632;51.666;7.146;2022-12-20T16:32:02;7.90;;;4.10;;
5225;SDS011;2632;51.666;7.146;2022-12-20T16:34:35;8.13;;;4.43;;
5225;SDS011;2632;51.666;7.146;2022-12-20T16:37:02;9.90;;;5.17;;
5225;SDS011;2632;51.666;7.146;2022-12-20T16:39:29;12.33;;;4.80;;
5225;SDS011;2632;51.666;7.146;2022-12-20T16:41:56;10.33;;;4.97;;
5225;SDS011;2632;51.666;7.146;2022-12-20T16:44:23;6.83;;;4.40;;
5225;SDS011;2632;51.666;7.146;2022-12-20T16:46:49;9.00;;;5.10;;
5225;SDS011;2632;51.666;7.146;2022-12-20T16:49:16;11.30;;;5.70;;
5225;SDS011;2632;51.666;7.146;2022-12-20T16:51:46;12.40;;;6.63;;
5225;SDS011;2632;51.666;7.146;2022-12-20T16:54:21;9.90;;;6.17;;
5225;SDS011;2632;51.666;7.146;2022-12-20T16:56:49;10.27;;;5.37;;
5225;SDS011;2632;51.666;7.146;2022-12-20T16:59:20;14.33;;;7.43;;
5225;SDS011;2632;51.666;7.146;2022-12-20T17:01:51;11.70;;;5.87;;
5225;SDS011;2632;51.666;7.146;2022-12-20T17:04:20;10.53;;;4.73;;
5225;SDS011;2632;51.666;7.146;2022-12-20T17:06:48;8.43;;;5.37;;
5225;SDS011;2632;51.666;7.146;2022-12-20T17:09:14;7.43;;;5.07;;
5225;SDS011;2632;51.666;7.146;2022-12-20T17:12:00;9.07;;;5.60;;
5225;SDS011;2632;51.666;7.146;2022-12-20T17:14:29;8.47;;;4.77;;
5225;SDS011;2632;51.666;7.146;2022-12-20T17:16:56;8.60;;;4.57;;
5225;SDS011;2632;51.666;7.146;2022-12-20T17:19:22;9.23;;;4.73;;
5225;SDS011;2632;51.666;7.146;2022-12-20T17:21:49;12.10;;;4.70;;
5225;SDS011;2632;51.666;7.146;2022-12-20T17:24:33;8.07;;;4.40;;
5225;SDS011;2632;51.666;7.146;2022-12-20T17:26:59;9.20;;;4.23;;
5225;SDS011;2632;51.666;7.146;2022-12-20T17:29:26;7.90;;;5.07;;
5225;SDS011;2632;51.666;7.146;2022-12-20T17:31:53;11.13;;;5.13;;
5225;SDS011;2632;51.666;7.146;2022-12-20T17:36:48;10.30;;;5.17;;
5225;SDS011;2632;51.666;7.146;2022-12-20T17:39:16;8.77;;;5.10;;
5225;SDS011;2632;51.666;7.146;2022-12-20T17:41:43;11.10;;;5.53;;